Time;durP1;ratioP1;P1;durP2;ratioP2;P2;SDS_P1;SDS_P2;PMS_P1;PMS_P2;Temp;Humidity;BMP_temperature;BMP_pressure;BME280_temperature;BME280_humidity;BME280_pressure;Samples;Min_cycle;Max_cycle;Signal;HPM_P1;HPM_P2
2023/12/17 00:00:23;;;;;;;9.00;6.20;;;;;;;;;;5080132;28;20082;-45
2023/12/17 00:02:48;;;;;;;8.55;5.32;;;;;;;;;;5073834;28;20028;-47
2023/12/17 00:05:13;;;;;;;8.13;5.90;;;;;;;;;;5075325;28;20024;-45
2023/12/17 00:07:39;;;;;;;8.48;5.82;;;;;;;;;;5074123;28;20024;-46
2023/12/17 00:10:06;;;;;;;9.05;6.57;;;;;;;;;;5072828;28;20037;-48
2023/12/17 00:12:31;;;;;;;15.90;8.85;;;;;;;;;;5077065;28;20029;-45
2023/12/17 00:14:57;;;;;;;12.77;7.93;;;;;;;;;;5075354;28;20028;-45
2023/12/17 00:17:22;;;;;;;16.88;8.65;;;;;;;;;;5076362;28;20482;-46
2023/12/17 00:19:48;;;;;;;10.48;6.90;;;;;;;;;;5079050;28;20427;-46
2023/12/17 00:22:13;;;;;;;9.18;7.22;;;;;;;;;;5078081;28;20037;-49
2023/12/17 00:24:39;;;;;;;11.77;7.38;;;;;;;;;;5076052;28;20028;-46
2023/12/17 00:27:04;;;;;;;12.40;8.63;;;;;;;;;;5076554;28;20094;-46
2023/12/17 00:29:29;;;;;;;11.77;8.07;;;;;;;;;;5077060;28;20029;-46
2023/12/17 00:31:55;;;;;;;12.60;8.43;;;;;;;;;;5076877;28;20055;-45
2023/12/17 00:34:20;;;;;;;13.05;8.32;;;;;;;;;;5073979;28;20036;-46
2023/12/17 00:36:46;;;;;;;10.85;7.50;;;;;;;;;;5077542;28;20033;-46
2023/12/17 00:39:11;;;;;;;12.00;7.05;;;;;;;;;;5076198;28;20554;-46
2023/12/17 00:41:37;;;;;;;15.02;9.38;;;;;;;;;;5072963;28;20389;-45
2023/12/17 00:44:02;;;;;;;13.93;9.40;;;;;;;;;;5075993;28;20047;-46
2023/12/17 00:46:28;;;;;;;11.73;7.32;;;;;;;;;;5077197;28;20428;-47
2023/12/17 00:48:53;;;;;;;12.25;7.93;;;;;;;;;;5077840;28;20036;-45
2023/12/17 00:51:19;;;;;;;17.20;10.82;;;;;;;;;;5075690;28;20398;-44
2023/12/17 00:53:44;;;;;;;15.77;11.63;;;;;;;;;;5080656;28;20441;-47
2023/12/17 00:56:09;;;;;;;19.65;12.82;;;;;;;;;;5075440;28;20489;-45
2023/12/17 00:58:35;;;;;;;19.33;13.43;;;;;;;;;;5085336;28;20754;-44
2023/12/17 01:01:01;;;;;;;19.13;12.57;;;;;;;;;;5075381;28;20088;-47
2023/12/17 01:03:27;;;;;;;16.98;11.68;;;;;;;;;;5073152;28;20056;-47
2023/12/17 01:05:52;;;;;;;19.42;13.02;;;;;;;;;;5074516;28;20024;-45
2023/12/17 01:08:18;;;;;;;16.55;13.25;;;;;;;;;;5076887;28;20044;-44
2023/12/17 01:10:43;;;;;;;16.35;13.32;;;;;;;;;;5067118;28;20021;-44
2023/12/17 01:13:08;;;;;;;18.55;11.38;;;;;;;;;;5076226;28;20410;-45
2023/12/17 01:15:34;;;;;;;13.70;11.43;;;;;;;;;;5073349;28;20028;-49
2023/12/17 01:17:59;;;;;;;14.55;10.02;;;;;;;;;;5076368;28;20044;-45
2023/12/17 01:20:25;;;;;;;15.52;11.27;;;;;;;;;;5075636;28;20030;-45
2023/12/17 01:22:50;;;;;;;14.85;9.75;;;;;;;;;;5075833;28;20035;-46
2023/12/17 01:25:15;;;;;;;19.45;12.32;;;;;;;;;;5073952;28;20032;-44
2023/12/17 01:27:41;;;;;;;24.48;16.55;;;;;;;;;;5074228;28;20067;-45
2023/12/17 01:30:07;;;;;;;23.70;14.45;;;;;;;;;;5077271;28;20035;-47
2023/12/17 01:32:32;;;;;;;17.77;12.80;;;;;;;;;;5074506;28;20032;-45
2023/12/17 01:34:57;;;;;;;18.80;13.80;;;;;;;;;;5085487;28;20044;-45
2023/12/17 01:37:23;;;;;;;19.23;12.30;;;;;;;;;;5073670;28;20063;-45
2023/12/17 01:39:48;;;;;;;19.85;13.85;;;;;;;;;;5072779;28;20048;-47
2023/12/17 01:42:14;;;;;;;15.18;11.18;;;;;;;;;;5075693;28;20066;-47
2023/12/17 01:44:40;;;;;;;15.13;11.00;;;;;;;;;;5075420;28;20044;-46
2023/12/17 01:47:06;;;;;;;16.65;10.38;;;;;;;;;;5074711;28;20088;-46
2023/12/17 01:49:32;;;;;;;17.35;13.18;;;;;;;;;;5073160;28;20040;-46
2023/12/17 01:51:57;;;;;;;17.20;12.07;;;;;;;;;;5078713;28;20121;-45
2023/12/17 01:54:22;;;;;;;19.27;13.02;;;;;;;;;;5078138;28;20039;-46
2023/12/17 01:56:48;;;;;;;14.45;9.05;;;;;;;;;;5073292;28;20028;-46
2023/12/17 01:59:14;;;;;;;12.50;8.65;;;;;;;;;;5075784;28;20516;-47
2023/12/17 02:01:43;;;;;;;11.07;9.55;;;;;;;;;;5083496;28;20056;-45
2023/12/17 02:04:09;;;;;;;12.63;8.38;;;;;;;;;;5075251;28;20402;-47
2023/12/17 02:06:35;;;;;;;8.75;6.72;;;;;;;;;;5069854;28;20648;-46
2023/12/17 02:09:00;;;;;;;6.75;5.68;;;;;;;;;;5074220;28;20086;-47
2023/12/17 02:11:26;;;;;;;8.38;4.60;;;;;;;;;;5070529;28;20024;-45
2023/12/17 02:13:51;;;;;;;6.03;4.93;;;;;;;;;;5074323;28;20044;-45
2023/12/17 02:16:17;;;;;;;6.07;4.07;;;;;;;;;;5073544;28;20052;-46
2023/12/17 02:18:42;;;;;;;8.88;4.47;;;;;;;;;;5067427;28;20089;-47
2023/12/17 02:21:07;;;;;;;5.45;4.20;;;;;;;;;;5069426;28;20044;-46
2023/12/17 02:23:33;;;;;;;7.50;4.38;;;;;;;;;;5075552;28;20045;-44
2023/12/17 02:25:58;;;;;;;6.35;4.15;;;;;;;;;;5067905;28;20084;-44
2023/12/17 02:28:24;;;;;;;5.28;3.85;;;;;;;;;;5077391;28;20036;-47
2023/12/17 02:30:49;;;;;;;7.28;4.90;;;;;;;;;;5075171;28;20028;-47
2023/12/17 02:33:14;;;;;;;9.60;5.15;;;;;;;;;;5074091;28;20043;-44
2023/12/17 02:35:40;;;;;;;6.43;4.43;;;;;;;;;;5070711;28;20081;-47
2023/12/17 02:38:05;;;;;;;8.07;6.57;;;;;;;;;;5073525;28;20028;-46
2023/12/17 02:40:31;;;;;;;9.60;7.72;;;;;;;;;;5074703;28;20027;-45
2023/12/17 02:42:56;;;;;;;10.93;8.07;;;;;;;;;;5080129;28;20021;-47
2023/12/17 02:45:21;;;;;;;10.43;9.35;;;;;;;;;;5073505;28;20071;-44
2023/12/17 02:47:47;;;;;;;12.18;7.80;;;;;;;;;;5075275;28;20059;-48
2023/12/17 02:50:12;;;;;;;9.55;7.22;;;;;;;;;;5072473;28;20470;-46
2023/12/17 02:52:37;;;;;;;10.52;7.45;;;;;;;;;;5074247;28;20041;-47
2023/12/17 02:55:03;;;;;;;9.27;7.32;;;;;;;;;;5075654;28;20068;-45
2023/12/17 02:57:29;;;;;;;10.40;6.30;;;;;;;;;;5087827;28;20032;-47
2023/12/17 02:59:55;;;;;;;10.35;6.60;;;;;;;;;;5072674;28;20045;-50
2023/12/17 03:02:20;;;;;;;8.40;6.60;;;;;;;;;;5080552;28;20115;-46
2023/12/17 03:04:46;;;;;;;11.75;7.70;;;;;;;;;;5073297;28;20137;-46
2023/12/17 03:07:12;;;;;;;9.48;6.60;;;;;;;;;;5074500;28;20059;-46
2023/12/17 03:09:37;;;;;;;10.90;7.70;;;;;;;;;;5074391;28;20158;-47
2023/12/17 03:12:03;;;;;;;10.00;7.20;;;;;;;;;;5072008;28;20490;-49
2023/12/17 03:14:31;;;;;;;11.68;7.80;;;;;;;;;;5078492;28;20040;-46
2023/12/17 03:16:56;;;;;;;13.52;7.50;;;;;;;;;;5073442;28;20030;-46
2023/12/17 03:19:22;;;;;;;10.98;7.18;;;;;;;;;;5074085;28;20061;-47
2023/12/17 03:21:47;;;;;;;12.38;7.35;;;;;;;;;;5075120;28;20017;-44
2023/12/17 03:24:13;;;;;;;9.60;7.32;;;;;;;;;;5074184;28;20035;-44
2023/12/17 03:26:38;;;;;;;9.20;7.00;;;;;;;;;;5073748;28;20029;-46
2023/12/17 03:29:03;;;;;;;11.98;7.55;;;;;;;;;;5089601;28;20040;-46
2023/12/17 03:31:29;;;;;;;9.52;6.60;;;;;;;;;;5074166;28;20027;-48
2023/12/17 03:33:54;;;;;;;9.07;6.95;;;;;;;;;;5076184;28;20043;-45
2023/12/17 03:36:19;;;;;;;13.20;7.30;;;;;;;;;;5077290;28;20020;-47
2023/12/17 03:38:46;;;;;;;7.05;5.20;;;;;;;;;;5084128;28;20033;-46
2023/12/17 03:41:26;;;;;;;7.63;4.40;;;;;;;;;;5072451;28;20029;-45
2023/12/17 03:43:53;;;;;;;9.10;3.88;;;;;;;;;;5076323;28;20123;-48
2023/12/17 03:46:23;;;;;;;5.18;3.67;;;;;;;;;;5078023;28;20058;-48
2023/12/17 03:48:49;;;;;;;5.20;3.55;;;;;;;;;;5079461;28;20090;-45
2023/12/17 03:51:14;;;;;;;6.32;4.70;;;;;;;;;;5078999;28;20028;-44
2023/12/17 03:53:40;;;;;;;6.25;2.95;;;;;;;;;;5077804;28;20724;-45
2023/12/17 03:56:16;;;;;;;5.00;3.58;;;;;;;;;;5073612;28;20024;-44
2023/12/17 03:58:42;;;;;;;7.00;3.55;;;;;;;;;;5077383;28;20120;-45
2023/12/17 04:01:08;;;;;;;4.38;3.10;;;;;;;;;;5076924;28;20076;-47
2023/12/17 04:03:34;;;;;;;6.22;3.97;;;;;;;;;;5077222;28;20040;-45
2023/12/17 04:06:00;;;;;;;5.43;3.58;;;;;;;;;;5077507;28;20073;-46
2023/12/17 04:08:26;;;;;;;5.70;3.58;;;;;;;;;;5075286;28;20040;-48
2023/12/17 04:10:52;;;;;;;5.00;3.85;;;;;;;;;;5077248;28;20029;-45
2023/12/17 04:13:17;;;;;;;3.50;2.40;;;;;;;;;;5077403;28;20040;-45
2023/12/17 04:15:43;;;;;;;6.82;3.80;;;;;;;;;;5078479;28;20024;-46
2023/12/17 04:18:08;;;;;;;5.53;4.03;;;;;;;;;;5076879;28;20052;-45
2023/12/17 04:20:34;;;;;;;8.10;4.03;;;;;;;;;;5079212;28;20036;-46
2023/12/17 04:22:59;;;;;;;5.93;3.13;;;;;;;;;;5077612;28;20037;-44
2023/12/17 04:25:25;;;;;;;7.03;3.95;;;;;;;;;;5076528;28;20034;-45
2023/12/17 04:27:51;;;;;;;5.65;3.28;;;;;;;;;;5088054;28;20044;-48
2023/12/17 04:30:16;;;;;;;3.75;2.65;;;;;;;;;;5089035;28;21841;-45
2023/12/17 04:32:41;;;;;;;4.32;2.97;;;;;;;;;;5076685;28;20024;-45
2023/12/17 04:35:08;;;;;;;6.00;3.00;;;;;;;;;;5075820;28;20028;-46
2023/12/17 04:37:33;;;;;;;6.07;4.03;;;;;;;;;;5075023;28;20025;-45
2023/12/17 04:39:58;;;;;;;7.78;4.40;;;;;;;;;;5074972;28;20039;-48
2023/12/17 04:42:24;;;;;;;7.22;3.80;;;;;;;;;;5074781;28;20040;-45
2023/12/17 04:44:49;;;;;;;6.72;3.33;;;;;;;;;;5075145;28;20037;-46
2023/12/17 04:47:15;;;;;;;7.22;4.32;;;;;;;;;;5077199;28;20543;-45
2023/12/17 04:49:40;;;;;;;8.02;5.13;;;;;;;;;;5078354;28;20096;-45
2023/12/17 04:52:06;;;;;;;6.07;3.45;;;;;;;;;;5077700;28;20078;-44
2023/12/17 04:54:31;;;;;;;6.82;4.50;;;;;;;;;;5076435;28;20040;-49
2023/12/17 04:56:57;;;;;;;8.70;4.68;;;;;;;;;;5073347;28;20534;-46
2023/12/17 04:59:23;;;;;;;9.25;5.20;;;;;;;;;;5072241;28;20044;-47
2023/12/17 05:01:48;;;;;;;10.30;5.68;;;;;;;;;;5058490;28;20033;-45
2023/12/17 05:04:15;;;;;;;7.03;4.45;;;;;;;;;;5076792;28;20032;-45
2023/12/17 05:06:41;;;;;;;9.15;4.40;;;;;;;;;;5073949;28;20029;-47
2023/12/17 05:09:06;;;;;;;5.22;3.47;;;;;;;;;;5068633;28;20036;-46
2023/12/17 05:11:32;;;;;;;4.55;2.95;;;;;;;;;;5074668;28;20052;-45
2023/12/17 05:13:57;;;;;;;3.45;3.13;;;;;;;;;;5075066;28;20666;-44
2023/12/17 05:16:23;;;;;;;4.70;2.63;;;;;;;;;;5075148;28;20497;-45
2023/12/17 05:18:48;;;;;;;10.20;3.63;;;;;;;;;;5075970;28;20071;-44
2023/12/17 05:21:13;;;;;;;6.55;3.08;;;;;;;;;;5074698;28;20447;-46
2023/12/17 05:23:39;;;;;;;6.40;3.40;;;;;;;;;;5083292;28;20486;-49
2023/12/17 05:26:04;;;;;;;12.88;4.80;;;;;;;;;;5076115;28;20568;-46
2023/12/17 05:28:30;;;;;;;5.88;3.08;;;;;;;;;;5073379;28;20114;-45
2023/12/17 05:30:55;;;;;;;5.95;2.72;;;;;;;;;;5073428;28;20020;-47
2023/12/17 05:33:20;;;;;;;4.47;2.72;;;;;;;;;;5075169;28;20040;-46
2023/12/17 05:35:46;;;;;;;2.38;1.67;;;;;;;;;;5080899;28;20040;-49
2023/12/17 05:38:11;;;;;;;3.17;2.08;;;;;;;;;;5080281;28;20058;-46
2023/12/17 05:40:37;;;;;;;2.40;2.17;;;;;;;;;;5071878;28;20052;-45
2023/12/17 05:43:03;;;;;;;3.83;2.53;;;;;;;;;;5059466;28;20059;-49
2023/12/17 05:45:30;;;;;;;4.60;2.88;;;;;;;;;;5076540;28;20084;-46
2023/12/17 05:47:56;;;;;;;2.95;2.10;;;;;;;;;;5074812;28;20520;-46
2023/12/17 05:50:22;;;;;;;4.55;2.60;;;;;;;;;;5073370;28;20028;-45
2023/12/17 05:52:48;;;;;;;3.17;2.15;;;;;;;;;;5075859;28;20568;-46
2023/12/17 05:55:14;;;;;;;4.90;2.20;;;;;;;;;;5073235;28;20041;-46
2023/12/17 05:57:41;;;;;;;4.70;2.40;;;;;;;;;;5074937;28;20463;-41
2023/12/17 06:00:08;;;;;;;3.50;2.03;;;;;;;;;;5075616;28;20086;-45
2023/12/17 06:02:34;;;;;;;3.15;2.08;;;;;;;;;;5076259;28;20059;-46
2023/12/17 06:04:59;;;;;;;4.28;2.33;;;;;;;;;;5074970;28;20028;-47
2023/12/17 06:07:25;;;;;;;4.60;1.88;;;;;;;;;;5074129;28;20032;-46
2023/12/17 06:09:51;;;;;;;8.85;4.50;;;;;;;;;;5077932;28;20085;-46
2023/12/17 06:12:17;;;;;;;14.85;7.03;;;;;;;;;;5075464;28;20074;-45
2023/12/17 06:14:42;;;;;;;4.47;2.80;;;;;;;;;;5073066;28;20024;-45
2023/12/17 06:17:07;;;;;;;4.50;3.33;;;;;;;;;;5071870;28;20055;-46
2023/12/17 06:19:33;;;;;;;6.22;4.18;;;;;;;;;;5071868;28;20059;-44
2023/12/17 06:22:01;;;;;;;6.32;3.40;;;;;;;;;;5076272;28;20020;-47
2023/12/17 06:24:26;;;;;;;4.55;3.30;;;;;;;;;;5073650;28;20029;-44
2023/12/17 06:26:53;;;;;;;5.50;3.42;;;;;;;;;;5078964;28;20031;-45
2023/12/17 06:29:19;;;;;;;7.00;3.47;;;;;;;;;;5069124;28;20036;-45
2023/12/17 06:31:44;;;;;;;6.57;3.42;;;;;;;;;;5074182;28;20099;-44
2023/12/17 06:34:10;;;;;;;3.92;2.40;;;;;;;;;;5073440;28;20053;-45
2023/12/17 06:36:35;;;;;;;6.03;3.17;;;;;;;;;;5075783;28;20033;-45
2023/12/17 06:39:01;;;;;;;5.38;3.05;;;;;;;;;;5073603;28;20040;-45
2023/12/17 06:41:26;;;;;;;4.75;2.70;;;;;;;;;;5078825;28;20032;-46
2023/12/17 06:43:51;;;;;;;4.22;2.92;;;;;;;;;;5074415;28;20673;-46
2023/12/17 06:46:17;;;;;;;3.55;2.15;;;;;;;;;;5069094;28;20166;-47
2023/12/17 06:48:43;;;;;;;2.53;2.00;;;;;;;;;;5073708;28;20032;-44
2023/12/17 06:51:09;;;;;;;3.20;2.20;;;;;;;;;;5078453;28;20024;-45
2023/12/17 06:53:34;;;;;;;3.55;2.22;;;;;;;;;;5078136;28;20090;-45
2023/12/17 06:56:00;;;;;;;3.70;3.22;;;;;;;;;;5073612;28;20051;-46
2023/12/17 06:58:25;;;;;;;4.45;3.67;;;;;;;;;;5074013;28;20083;-45
2023/12/17 07:00:50;;;;;;;5.70;4.40;;;;;;;;;;5073100;28;20048;-45
2023/12/17 07:03:19;;;;;;;4.15;2.65;;;;;;;;;;5074449;28;20143;-46
2023/12/17 07:05:45;;;;;;;3.08;2.33;;;;;;;;;;5074358;28;20032;-45
2023/12/17 07:08:10;;;;;;;4.95;3.55;;;;;;;;;;5075233;28;20093;-47
2023/12/17 07:10:36;;;;;;;6.50;3.90;;;;;;;;;;5078843;28;20024;-48
2023/12/17 07:13:03;;;;;;;4.32;2.97;;;;;;;;;;5079896;28;20037;-47
2023/12/17 07:15:29;;;;;;;3.20;2.90;;;;;;;;;;5076539;28;20024;-46
2023/12/17 07:17:54;;;;;;;5.13;2.90;;;;;;;;;;5075949;28;20028;-45
2023/12/17 07:20:20;;;;;;;6.75;2.75;;;;;;;;;;5078087;28;20462;-45
2023/12/17 07:22:45;;;;;;;5.55;3.67;;;;;;;;;;5078029;28;20036;-44
2023/12/17 07:25:11;;;;;;;5.65;3.22;;;;;;;;;;5077191;28;20024;-45
2023/12/17 07:27:36;;;;;;;3.88;2.92;;;;;;;;;;5077745;28;20051;-47
2023/12/17 07:30:02;;;;;;;4.93;3.00;;;;;;;;;;5079029;28;20024;-45
2023/12/17 07:32:27;;;;;;;3.83;2.80;;;;;;;;;;5077578;28;20055;-44
2023/12/17 07:34:53;;;;;;;3.45;2.30;;;;;;;;;;5077471;28;20033;-45
2023/12/17 07:37:18;;;;;;;3.88;3.45;;;;;;;;;;5078786;28;20020;-48
2023/12/17 07:39:43;;;;;;;3.08;2.38;;;;;;;;;;5076586;28;20037;-45
2023/12/17 07:42:09;;;;;;;3.67;2.20;;;;;;;;;;5083125;28;20029;-47
2023/12/17 07:44:34;;;;;;;3.13;2.42;;;;;;;;;;5081802;28;20040;-45
2023/12/17 07:47:00;;;;;;;3.55;2.35;;;;;;;;;;5078119;28;20109;-47
2023/12/17 07:49:25;;;;;;;2.92;2.05;;;;;;;;;;5077633;28;20466;-46
2023/12/17 07:51:52;;;;;;;5.85;3.10;;;;;;;;;;5073904;28;20112;-47
2023/12/17 07:54:17;;;;;;;3.60;2.53;;;;;;;;;;5078306;28;20097;-45
2023/12/17 07:56:43;;;;;;;3.33;3.00;;;;;;;;;;5076045;28;20032;-45
2023/12/17 07:59:09;;;;;;;3.92;2.25;;;;;;;;;;5076421;28;20047;-45
2023/12/17 08:01:35;;;;;;;2.80;2.10;;;;;;;;;;5072905;28;20124;-48
2023/12/17 08:04:00;;;;;;;4.47;3.80;;;;;;;;;;5076391;28;20040;-46
2023/12/17 08:06:26;;;;;;;3.67;3.20;;;;;;;;;;5077739;28;20036;-49
2023/12/17 08:08:53;;;;;;;3.42;2.40;;;;;;;;;;5077171;28;20036;-50
2023/12/17 08:11:18;;;;;;;4.35;2.72;;;;;;;;;;5074776;28;20032;-46
2023/12/17 08:13:44;;;;;;;3.33;2.53;;;;;;;;;;5077298;28;20574;-45
2023/12/17 08:16:10;;;;;;;3.95;3.65;;;;;;;;;;5078104;28;20132;-45
2023/12/17 08:18:36;;;;;;;4.88;3.92;;;;;;;;;;5090739;28;22743;-45
2023/12/17 08:21:02;;;;;;;4.22;3.15;;;;;;;;;;5076024;28;20033;-46
2023/12/17 08:23:28;;;;;;;4.88;3.15;;;;;;;;;;5069885;28;20044;-45
2023/12/17 08:25:54;;;;;;;3.47;3.05;;;;;;;;;;5075134;28;20030;-47
2023/12/17 08:28:20;;;;;;;4.45;3.05;;;;;;;;;;5077522;28;20505;-45
2023/12/17 08:30:45;;;;;;;4.00;3.53;;;;;;;;;;5078815;28;20042;-45
2023/12/17 08:33:11;;;;;;;3.92;3.08;;;;;;;;;;5076774;28;20048;-46
2023/12/17 08:35:37;;;;;;;3.83;2.95;;;;;;;;;;5077854;28;20028;-48
2023/12/17 08:38:05;;;;;;;4.22;3.50;;;;;;;;;;5074728;28;20041;-45
2023/12/17 08:40:37;;;;;;;6.38;4.45;;;;;;;;;;5079670;28;20033;-48
2023/12/17 08:43:06;;;;;;;5.32;3.88;;;;;;;;;;5076761;28;20036;-44
2023/12/17 08:45:32;;;;;;;6.45;4.20;;;;;;;;;;5082214;28;20036;-49
2023/12/17 08:47:59;;;;;;;5.50;3.85;;;;;;;;;;5074504;28;20024;-46
2023/12/17 08:50:24;;;;;;;4.95;3.97;;;;;;;;;;5077191;28;20017;-46
2023/12/17 08:52:50;;;;;;;3.67;2.40;;;;;;;;;;5072384;28;20548;-44
2023/12/17 08:55:15;;;;;;;5.18;3.40;;;;;;;;;;5074948;28;20043;-49
2023/12/17 08:57:41;;;;;;;6.07;3.25;;;;;;;;;;5081734;28;20095;-47
2023/12/17 09:00:07;;;;;;;4.75;3.03;;;;;;;;;;5074085;28;20522;-46
2023/12/17 09:02:35;;;;;;;9.48;5.60;;;;;;;;;;5075994;28;20482;-46
2023/12/17 09:05:02;;;;;;;8.93;6.50;;;;;;;;;;5073032;28;20052;-44
2023/12/17 09:07:28;;;;;;;11.63;7.55;;;;;;;;;;5077350;28;20036;-44
2023/12/17 09:09:53;;;;;;;9.35;7.45;;;;;;;;;;5072959;28;20036;-45
2023/12/17 09:12:19;;;;;;;8.30;6.97;;;;;;;;;;5076368;28;20040;-47
2023/12/17 09:14:44;;;;;;;8.40;6.85;;;;;;;;;;5077512;28;20047;-47
2023/12/17 09:17:09;;;;;;;11.35;6.05;;;;;;;;;;5052878;28;20060;-45
2023/12/17 09:19:35;;;;;;;10.48;5.63;;;;;;;;;;5070381;28;20514;-47
2023/12/17 09:22:01;;;;;;;7.10;4.10;;;;;;;;;;5074284;28;20024;-45
2023/12/17 09:24:26;;;;;;;5.78;3.45;;;;;;;;;;5073032;28;20125;-46
2023/12/17 09:26:52;;;;;;;8.05;4.20;;;;;;;;;;5072655;28;20557;-47
2023/12/17 09:29:17;;;;;;;7.35;3.85;;;;;;;;;;5072235;28;20078;-46
2023/12/17 09:31:43;;;;;;;4.80;3.30;;;;;;;;;;5074439;28;20017;-46
2023/12/17 09:34:09;;;;;;;4.35;2.92;;;;;;;;;;5074579;28;20041;-46
2023/12/17 09:36:34;;;;;;;4.35;2.40;;;;;;;;;;5073526;28;20041;-46
2023/12/17 09:39:00;;;;;;;2.55;2.28;;;;;;;;;;5076066;28;20092;-49
2023/12/17 09:41:25;;;;;;;2.42;1.83;;;;;;;;;;5080496;28;20087;-47
2023/12/17 09:43:51;;;;;;;4.65;2.25;;;;;;;;;;5071452;28;20036;-46
2023/12/17 09:46:18;;;;;;;4.13;2.20;;;;;;;;;;5071786;28;20081;-46
2023/12/17 09:48:44;;;;;;;3.97;2.58;;;;;;;;;;5069683;28;20875;-43
2023/12/17 09:51:12;;;;;;;2.35;1.77;;;;;;;;;;5071140;28;20028;-48
2023/12/17 09:53:37;;;;;;;4.60;2.45;;;;;;;;;;5070705;28;20040;-43
2023/12/17 09:56:03;;;;;;;3.40;2.33;;;;;;;;;;5069485;28;20024;-49
2023/12/17 09:58:28;;;;;;;2.85;2.30;;;;;;;;;;5068413;28;20048;-45
2023/12/17 10:00:54;;;;;;;3.53;1.77;;;;;;;;;;5068022;28;20035;-45
2023/12/17 10:03:20;;;;;;;2.25;1.50;;;;;;;;;;5069915;28;20044;-46
2023/12/17 10:05:55;;;;;;;2.03;1.63;;;;;;;;;;5065207;28;20036;-44
2023/12/17 10:08:22;;;;;;;2.92;1.20;;;;;;;;;;5066603;28;20044;-47
2023/12/17 10:10:47;;;;;;;2.35;2.08;;;;;;;;;;5069564;28;20020;-45
2023/12/17 10:13:20;;;;;;;2.75;2.35;;;;;;;;;;5064296;28;20033;-45
2023/12/17 10:15:54;;;;;;;2.45;1.70;;;;;;;;;;5071081;28;20032;-48
2023/12/17 10:18:20;;;;;;;2.03;1.15;;;;;;;;;;5077270;28;20044;-48
2023/12/17 10:20:46;;;;;;;1.75;1.30;;;;;;;;;;5067291;28;20900;-46
2023/12/17 10:23:12;;;;;;;2.53;1.25;;;;;;;;;;5070974;28;20549;-45
2023/12/17 10:25:38;;;;;;;1.83;1.60;;;;;;;;;;5073149;28;20036;-46
2023/12/17 10:28:04;;;;;;;1.50;1.27;;;;;;;;;;5070758;28;20040;-47
2023/12/17 10:30:31;;;;;;;2.28;1.98;;;;;;;;;;5079791;28;20072;-45
2023/12/17 10:32:58;;;;;;;2.60;1.23;;;;;;;;;;5073948;28;20020;-45
2023/12/17 10:35:27;;;;;;;3.30;1.20;;;;;;;;;;5071501;28;20036;-48
2023/12/17 10:37:54;;;;;;;1.70;1.20;;;;;;;;;;5081422;28;20032;-45
2023/12/17 10:40:21;;;;;;;2.30;2.05;;;;;;;;;;5069704;28;20038;-45
2023/12/17 10:42:48;;;;;;;2.22;1.50;;;;;;;;;;5073436;28;20115;-47
2023/12/17 10:45:15;;;;;;;2.40;1.60;;;;;;;;;;5072751;28;20091;-44
2023/12/17 10:47:41;;;;;;;2.63;1.48;;;;;;;;;;5080266;28;20429;-46
2023/12/17 10:50:07;;;;;;;1.42;1.17;;;;;;;;;;5073741;28;20020;-44
2023/12/17 10:52:33;;;;;;;2.25;1.08;;;;;;;;;;5079304;28;20068;-46
2023/12/17 10:54:59;;;;;;;2.83;2.17;;;;;;;;;;5076295;28;20039;-45
2023/12/17 10:57:27;;;;;;;3.72;1.95;;;;;;;;;;5077863;28;20052;-45
2023/12/17 10:59:54;;;;;;;3.30;1.80;;;;;;;;;;5079324;28;20505;-46
2023/12/17 11:02:22;;;;;;;3.20;1.52;;;;;;;;;;5079001;28;20043;-46
2023/12/17 11:04:48;;;;;;;2.78;1.20;;;;;;;;;;5075291;28;20074;-43
2023/12/17 11:07:17;;;;;;;2.70;1.73;;;;;;;;;;5080586;28;20110;-44
2023/12/17 11:09:43;;;;;;;2.45;1.48;;;;;;;;;;5078760;28;20041;-47
2023/12/17 11:12:10;;;;;;;3.30;1.67;;;;;;;;;;5084728;28;20032;-46
2023/12/17 11:14:36;;;;;;;4.22;2.22;;;;;;;;;;5080756;28;20041;-44
2023/12/17 11:17:10;;;;;;;8.85;6.28;;;;;;;;;;5082728;28;20051;-48
2023/12/17 11:19:35;;;;;;;13.27;11.98;;;;;;;;;;5078869;28;20044;-44
2023/12/17 11:22:00;;;;;;;13.93;10.38;;;;;;;;;;5078525;28;20035;-46
2023/12/17 11:24:26;;;;;;;12.45;11.25;;;;;;;;;;5076252;28;20037;-46
2023/12/17 11:26:51;;;;;;;11.55;10.55;;;;;;;;;;5078270;28;20020;-44
2023/12/17 11:29:38;;;;;;;12.95;10.68;;;;;;;;;;5077904;28;20059;-44
2023/12/17 11:32:04;;;;;;;14.63;12.65;;;;;;;;;;5077617;28;20025;-44
2023/12/17 11:34:30;;;;;;;16.63;11.25;;;;;;;;;;5077079;28;20399;-47
2023/12/17 11:36:57;;;;;;;13.20;10.75;;;;;;;;;;5075470;28;20546;-44
2023/12/17 11:39:25;;;;;;;14.40;11.07;;;;;;;;;;5075429;28;20090;-46
2023/12/17 11:41:51;;;;;;;13.40;10.82;;;;;;;;;;5065975;28;20034;-44
2023/12/17 11:44:16;;;;;;;14.65;12.20;;;;;;;;;;5078024;28;20132;-44
2023/12/17 11:46:46;;;;;;;15.57;11.60;;;;;;;;;;5077812;28;20038;-46
2023/12/17 11:49:11;;;;;;;13.45;12.15;;;;;;;;;;5065801;28;20037;-44
2023/12/17 11:51:37;;;;;;;14.75;11.50;;;;;;;;;;5081366;28;20078;-50
2023/12/17 11:54:02;;;;;;;15.57;13.43;;;;;;;;;;5074399;28;20032;-49
2023/12/17 11:56:29;;;;;;;12.82;11.45;;;;;;;;;;5076767;28;20032;-50
2023/12/17 11:58:55;;;;;;;14.27;11.50;;;;;;;;;;5081344;28;20032;-49
2023/12/17 12:01:20;;;;;;;13.10;11.75;;;;;;;;;;5064931;28;20119;-45
2023/12/17 12:03:46;;;;;;;16.42;14.00;;;;;;;;;;5088109;28;20132;-44
2023/12/17 12:06:12;;;;;;;14.30;12.25;;;;;;;;;;5077842;28;20046;-46
2023/12/17 12:08:46;;;;;;;14.18;11.77;;;;;;;;;;5076548;28;20106;-44
2023/12/17 12:11:17;;;;;;;14.40;11.15;;;;;;;;;;5076894;28;20025;-46
2023/12/17 12:13:45;;;;;;;14.27;11.30;;;;;;;;;;5080872;28;20040;-48
2023/12/17 12:16:11;;;;;;;14.68;11.18;;;;;;;;;;5075882;28;20028;-49
2023/12/17 12:18:37;;;;;;;11.48;9.75;;;;;;;;;;5077333;28;20032;-43
2023/12/17 12:21:18;;;;;;;12.90;11.23;;;;;;;;;;5076008;28;20424;-46
2023/12/17 12:23:54;;;;;;;10.55;8.98;;;;;;;;;;5080870;28;20437;-44
2023/12/17 12:26:20;;;;;;;13.02;9.82;;;;;;;;;;5060864;28;20086;-44
2023/12/17 12:28:53;;;;;;;10.88;8.95;;;;;;;;;;5077710;28;20406;-47
2023/12/17 12:31:18;;;;;;;11.57;8.00;;;;;;;;;;5069731;28;20089;-47
2023/12/17 12:34:04;;;;;;;10.32;7.88;;;;;;;;;;5076705;28;20060;-47
2023/12/17 12:36:44;;;;;;;8.27;6.53;;;;;;;;;;5084081;28;20528;-47
2023/12/17 12:39:10;;;;;;;6.45;5.45;;;;;;;;;;5074444;28;20037;-50
2023/12/17 12:41:42;;;;;;;6.43;4.97;;;;;;;;;;5084091;28;20024;-44
2023/12/17 12:44:12;;;;;;;5.57;3.85;;;;;;;;;;5093019;28;20113;-46
2023/12/17 12:46:37;;;;;;;6.75;5.50;;;;;;;;;;5084808;28;20029;-48
2023/12/17 12:49:03;;;;;;;7.07;5.75;;;;;;;;;;5077504;28;20039;-45
2023/12/17 12:51:30;;;;;;;8.35;6.28;;;;;;;;;;5078017;28;20028;-44
2023/12/17 12:53:56;;;;;;;9.32;5.75;;;;;;;;;;5073283;28;20502;-47
2023/12/17 12:56:21;;;;;;;9.13;6.65;;;;;;;;;;5070765;28;20140;-44
2023/12/17 12:58:47;;;;;;;6.78;5.60;;;;;;;;;;5072814;28;20036;-44
2023/12/17 13:01:12;;;;;;;7.28;4.95;;;;;;;;;;5078112;28;20032;-44
2023/12/17 13:03:38;;;;;;;8.43;6.30;;;;;;;;;;5074299;28;20046;-47
2023/12/17 13:06:05;;;;;;;5.25;4.22;;;;;;;;;;5073415;28;20044;-43
2023/12/17 13:08:30;;;;;;;6.93;5.10;;;;;;;;;;5076563;28;20040;-47
2023/12/17 13:10:56;;;;;;;6.15;4.50;;;;;;;;;;5081869;28;20032;-47
2023/12/17 13:13:22;;;;;;;7.70;5.60;;;;;;;;;;5075487;28;20081;-46
2023/12/17 13:15:47;;;;;;;8.13;6.65;;;;;;;;;;5074209;28;20496;-45
2023/12/17 13:18:13;;;;;;;8.23;7.00;;;;;;;;;;5074071;28;20036;-45
2023/12/17 13:20:39;;;;;;;8.15;7.35;;;;;;;;;;5075323;28;20023;-45
2023/12/17 13:23:05;;;;;;;10.45;9.35;;;;;;;;;;5080424;28;20138;-45
2023/12/17 13:25:31;;;;;;;11.50;8.77;;;;;;;;;;5071463;28;20062;-44
2023/12/17 13:27:57;;;;;;;9.98;8.85;;;;;;;;;;5075033;28;20048;-46
2023/12/17 13:30:25;;;;;;;10.25;9.25;;;;;;;;;;5073659;28;20031;-47
2023/12/17 13:32:53;;;;;;;12.90;10.10;;;;;;;;;;5070725;28;20085;-44
2023/12/17 13:35:19;;;;;;;11.98;10.02;;;;;;;;;;5077510;28;20044;-48
2023/12/17 13:37:44;;;;;;;10.63;9.50;;;;;;;;;;5073922;28;20012;-45
2023/12/17 13:40:12;;;;;;;12.75;8.15;;;;;;;;;;5076464;28;20036;-49
2023/12/17 13:42:38;;;;;;;10.20;8.15;;;;;;;;;;5075653;28;20029;-44
2023/12/17 13:45:04;;;;;;;9.80;7.68;;;;;;;;;;5071171;28;20072;-47
2023/12/17 13:47:29;;;;;;;11.15;9.27;;;;;;;;;;5074248;28;20093;-46
2023/12/17 13:49:55;;;;;;;12.07;8.68;;;;;;;;;;5071982;28;20038;-46
2023/12/17 13:52:22;;;;;;;8.95;6.57;;;;;;;;;;5075305;28;20072;-44
2023/12/17 13:54:47;;;;;;;8.48;6.15;;;;;;;;;;5073791;28;20029;-46
2023/12/17 13:57:17;;;;;;;10.13;7.20;;;;;;;;;;5071081;28;20041;-45
2023/12/17 13:59:43;;;;;;;10.18;8.40;;;;;;;;;;5073800;28;20110;-46
2023/12/17 14:02:08;;;;;;;9.80;7.07;;;;;;;;;;5073224;28;20037;-47
2023/12/17 14:04:33;;;;;;;9.15;6.75;;;;;;;;;;5070138;28;20055;-53
2023/12/17 14:06:59;;;;;;;11.88;7.55;;;;;;;;;;5073560;28;20370;-49
2023/12/17 14:09:24;;;;;;;7.63;6.40;;;;;;;;;;5073564;28;20032;-44
2023/12/17 14:11:50;;;;;;;8.00;7.13;;;;;;;;;;5074942;28;20027;-47
2023/12/17 14:14:15;;;;;;;7.07;6.22;;;;;;;;;;5071277;28;20076;-46
2023/12/17 14:16:42;;;;;;;7.72;6.25;;;;;;;;;;5076999;28;20035;-44
2023/12/17 14:19:07;;;;;;;8.05;6.53;;;;;;;;;;5074218;28;20670;-46
2023/12/17 14:21:35;;;;;;;8.35;6.18;;;;;;;;;;5070442;28;20016;-48
2023/12/17 14:24:00;;;;;;;8.68;6.65;;;;;;;;;;5069720;28;20062;-44
2023/12/17 14:26:26;;;;;;;10.10;6.50;;;;;;;;;;5072833;28;20107;-48
2023/12/17 14:28:52;;;;;;;9.23;6.40;;;;;;;;;;5079612;28;20077;-45